Trinidad, Washington
Current Conditions -  °F | °C
As of 3:53 PM on Wednesday 28 Jan 2015 (Local Time) from KEPH Reporting Station
Overcast Overcast  
Wind Chill: 33°   Ceiling: 1000
Heat Index: 38°   Visibility: 10mi
Dew Point: 34°   Wind: 6mph
Humidity: 86%   Direction: 20°NNE
Pressure: 30.42"   Gusts: NA
Location:  47.1872°N, 119.812°W
Report Text: KEPH 282353Z AUTO 02005KT 10SM OVC010 03/01 A3042 RMK AO2 SLP312 T00330011 10033 20011 55000
Loading
Personal Weather Stations






























Interactive Weather Map New forecast layout! Learn more

10-Day Weather Forecast

Advertisements
Track Severe Weather on mobile